createdAt,value
2022-08-05T00:00:20.176Z,57.05
2022-08-05T00:01:27.962Z,56.43
2022-08-05T00:02:20.235Z,56.21
2022-08-05T00:03:20.175Z,55.65
2022-08-05T00:04:20.191Z,55.58
2022-08-05T00:05:27.485Z,56.4
2022-08-05T00:06:29.170Z,56.4
2022-08-05T00:07:27.455Z,56.57
2022-08-05T00:08:35.024Z,56.3
2022-08-05T00:09:20.238Z,55.47
2022-08-05T00:10:20.170Z,55.28
2022-08-05T00:11:20.550Z,55.28
2022-08-05T00:12:20.164Z,55.3
2022-08-05T00:13:20.169Z,55.67
2022-08-05T00:14:20.188Z,56.2
2022-08-05T00:15:55.741Z,56.2
2022-08-05T00:16:20.185Z,56.3
2022-08-05T00:17:20.305Z,56.37
2022-08-05T00:18:22.672Z,56.41
2022-08-05T00:19:21.590Z,56.55
2022-08-05T00:20:20.519Z,56.53
2022-08-05T00:21:20.171Z,56.42
2022-08-05T00:22:20.166Z,56.87
2022-08-05T00:23:44.617Z,56.9
2022-08-05T00:24:24.822Z,57.28
2022-08-05T00:25:20.173Z,57.02
2022-08-05T00:26:20.167Z,57.01
2022-08-05T00:27:20.167Z,56.72
2022-08-05T00:28:29.398Z,56.58
2022-08-05T00:29:22.680Z,56.66
2022-08-05T00:30:20.165Z,56.7
2022-08-05T00:31:54.378Z,56.63
2022-08-05T00:32:20.165Z,56.66
2022-08-05T00:34:53.546Z,56.84
2022-08-05T00:34:54.216Z,56.91
2022-08-05T00:35:20.292Z,57.06
2022-08-05T00:37:09.928Z,57.25
2022-08-05T00:37:20.335Z,57.66
2022-08-05T00:38:20.167Z,57.25
2022-08-05T00:39:20.245Z,57.36
2022-08-05T00:40:27.100Z,57.23
2022-08-05T00:41:20.164Z,57.77
2022-08-05T00:42:31.946Z,57.21
2022-08-05T00:43:20.165Z,56.76
2022-08-05T00:44:20.879Z,56.95
2022-08-05T00:45:28.177Z,56.76
2022-08-05T00:46:20.179Z,56.76
2022-08-05T00:47:20.165Z,56.58
2022-08-05T00:48:27.444Z,56.47
2022-08-05T00:52:28.317Z,56.96
2022-08-05T00:54:00.681Z,56.54
2022-08-05T00:54:20.172Z,56.45
2022-08-05T00:55:20.188Z,56.69
2022-08-05T00:56:22.692Z,56.45
2022-08-05T00:57:21.286Z,56.8
2022-08-05T00:58:20.182Z,58.02
2022-08-05T00:59:20.176Z,57.33
2022-08-05T01:00:20.183Z,57.1
2022-08-05T01:01:42.877Z,56.25
2022-08-05T01:02:20.181Z,57.24
2022-08-05T01:03:22.756Z,57.53
2022-08-05T01:04:27.013Z,58
2022-08-05T01:05:20.204Z,57.57
2022-08-05T01:06:20.183Z,56.92
2022-08-05T01:07:20.189Z,56.97
2022-08-05T01:08:40.698Z,57.41
2022-08-05T01:09:20.382Z,56.54
2022-08-05T01:10:20.181Z,56.37
2022-08-05T01:11:22.074Z,55.85
2022-08-05T01:12:20.167Z,56.99
2022-08-05T01:13:22.406Z,56.66
2022-08-05T01:14:27.948Z,57.11
2022-08-05T01:15:36.041Z,56.75
2022-08-05T01:16:21.075Z,56.63
2022-08-05T01:17:20.393Z,56.36
2022-08-05T01:18:20.171Z,56.91
2022-08-05T01:19:20.180Z,57.02
2022-08-05T01:20:20.182Z,56.95
2022-08-05T01:21:22.729Z,56.69
2022-08-05T01:22:24.291Z,56.76
2022-08-05T01:23:22.834Z,56.75
2022-08-05T01:24:20.174Z,57.57
2022-08-05T01:25:20.185Z,57.15
2022-08-05T01:26:20.175Z,57.27
2022-08-05T01:27:22.237Z,57.19
2022-08-05T01:28:20.170Z,56.93
2022-08-05T01:29:22.949Z,56.95
2022-08-05T01:30:20.185Z,56.7
2022-08-05T01:31:20.186Z,56.82
2022-08-05T01:32:20.189Z,56.29
2022-08-05T01:33:20.176Z,56.29
2022-08-05T01:34:20.175Z,57.01
2022-08-05T01:35:51.043Z,56.58
2022-08-05T01:36:20.979Z,56.08
2022-08-05T01:37:25.049Z,56.78
2022-08-05T01:38:24.680Z,56.7
2022-08-05T01:39:46.500Z,56.61
2022-08-05T01:40:20.193Z,56.52
2022-08-05T01:41:21.614Z,56.37
2022-08-05T01:42:20.180Z,55.81
2022-08-05T01:43:22.221Z,55.67
2022-08-05T01:44:20.172Z,55.76
2022-08-05T01:45:20.211Z,56.02
2022-08-05T01:46:42.932Z,55.94
2022-08-05T01:47:20.210Z,55.98
2022-08-05T01:48:20.185Z,55.95
2022-08-05T01:49:23.365Z,56.48
2022-08-05T01:50:20.194Z,56.27
2022-08-05T01:51:20.185Z,56.27
2022-08-05T01:52:20.175Z,56.37
2022-08-05T01:53:54.880Z,56.37
2022-08-05T01:54:20.173Z,57.59
2022-08-05T01:55:20.187Z,56.31
2022-08-05T01:58:12.462Z,54.91
2022-08-05T01:58:12.769Z,54.99
2022-08-05T01:58:40.231Z,56.47
2022-08-05T01:59:20.182Z,56.4
2022-08-05T02:00:20.207Z,57.34
2022-08-05T02:01:25.336Z,56.82
2022-08-05T02:02:20.318Z,56.72
2022-08-05T02:03:29.123Z,56.89
2022-08-05T02:04:20.172Z,57.17
2022-08-05T02:05:23.503Z,57
2022-08-05T02:06:37.464Z,56.64
2022-08-05T02:07:22.091Z,56.38
2022-08-05T02:08:29.664Z,56
2022-08-05T02:09:20.549Z,56.14
2022-08-05T02:10:20.196Z,56.06
2022-08-05T02:11:23.623Z,55.96
2022-08-05T02:12:20.175Z,56.01
2022-08-05T02:13:20.180Z,55.8
2022-08-05T02:14:20.173Z,56.35
2022-08-05T02:15:20.178Z,56.38
2022-08-05T02:16:22.231Z,56.4
2022-08-05T02:18:28.652Z,56.58
2022-08-05T02:18:30.925Z,56.95
2022-08-05T02:19:20.173Z,56.89
2022-08-05T02:20:20.749Z,55.93
2022-08-05T02:21:20.169Z,55.6
2022-08-05T02:22:26.425Z,56.18
2022-08-05T02:23:20.172Z,56.82
2022-08-05T02:24:23.143Z,56.54
2022-08-05T02:25:20.182Z,55.92
2022-08-05T02:26:20.168Z,56.2
2022-08-05T02:27:20.208Z,55.98
2022-08-05T02:28:28.491Z,56.33
2022-08-05T02:29:21.563Z,56.31
2022-08-05T02:30:20.190Z,56.36
2022-08-05T02:31:21.063Z,56.4
2022-08-05T02:32:24.079Z,56.49
2022-08-05T02:33:35.661Z,56.51
2022-08-05T02:34:20.194Z,56.47
2022-08-05T02:35:27.752Z,56.38
2022-08-05T02:36:20.192Z,56.8
2022-08-05T02:37:20.226Z,56.33
2022-08-05T02:38:20.164Z,56.31
2022-08-05T02:39:21.415Z,56.35
2022-08-05T02:40:20.174Z,56.17
2022-08-05T02:41:20.164Z,56.07
2022-08-05T02:42:22.506Z,56.17
2022-08-05T02:43:20.171Z,55.95
2022-08-05T02:44:20.146Z,56.06
2022-08-05T02:45:20.178Z,56
2022-08-05T02:46:20.204Z,55.71
2022-08-05T02:47:20.177Z,56.34
2022-08-05T02:48:20.181Z,56.19
2022-08-05T02:49:20.178Z,56.07
2022-08-05T02:50:20.186Z,57.22
2022-08-05T02:51:20.184Z,56.97
2022-08-05T02:52:29.290Z,55.79
2022-08-05T02:53:20.169Z,55.95
2022-08-05T02:54:34.890Z,55.93
2022-08-05T02:55:52.155Z,56.1
2022-08-05T02:56:20.167Z,55.83
2022-08-05T02:58:10.467Z,55.94
2022-08-05T02:58:21.280Z,56.04
2022-08-05T02:59:20.165Z,56.13
2022-08-05T03:00:20.191Z,56.32
2022-08-05T03:01:20.243Z,56.35
2022-08-05T03:02:20.169Z,56.34
2022-08-05T03:03:20.184Z,55.78
2022-08-05T03:04:20.170Z,55.51
2022-08-05T03:05:21.944Z,55.22
2022-08-05T03:06:56.226Z,55.49
2022-08-05T03:07:40.719Z,56.33
2022-08-05T03:08:29.675Z,55.95
2022-08-05T03:09:33.141Z,55.89
2022-08-05T03:10:24.419Z,55.71
2022-08-05T03:11:57.184Z,55.91
2022-08-05T03:12:20.174Z,55.96
2022-08-05T03:13:20.166Z,56.21
2022-08-05T03:14:20.168Z,55.79
2022-08-05T03:15:20.180Z,55.61
2022-08-05T03:16:20.182Z,56.12
2022-08-05T03:17:20.370Z,56.35
2022-08-05T03:18:29.807Z,56.05
2022-08-05T03:19:33.810Z,56.23
2022-08-05T03:20:20.176Z,56.22
2022-08-05T03:21:20.169Z,55.33
2022-08-05T03:22:32.579Z,55.65
2022-08-05T03:23:20.175Z,55.55
2022-08-05T03:24:26.826Z,54.76
2022-08-05T03:25:33.115Z,55.02
2022-08-05T03:26:31.123Z,54.71
2022-08-05T03:27:20.180Z,54.85
2022-08-05T03:28:20.169Z,55.01
2022-08-05T03:29:20.172Z,55.66
2022-08-05T03:30:20.870Z,55.18
2022-08-05T03:31:56.637Z,55.18
2022-08-05T03:32:20.175Z,55.25
2022-08-05T03:33:20.167Z,55.48
2022-08-05T03:34:20.178Z,55.46
2022-08-05T03:35:20.182Z,55.6
2022-08-05T03:36:30.433Z,55.47
2022-08-05T03:37:20.186Z,55.53
2022-08-05T03:38:32.788Z,55.17
2022-08-05T03:39:27.122Z,55.36
2022-08-05T03:40:24.600Z,55.6
2022-08-05T03:41:20.169Z,55.21
2022-08-05T03:42:20.175Z,55.15
2022-08-05T03:44:08.881Z,55.72
2022-08-05T03:44:20.263Z,55.07
2022-08-05T03:45:22.683Z,55
2022-08-05T03:46:20.189Z,55.36
2022-08-05T03:47:20.179Z,54.98
2022-08-05T03:48:22.714Z,54.98
2022-08-05T03:49:20.172Z,54.64
2022-08-05T03:50:20.202Z,54.67
2022-08-05T03:52:36.557Z,54.39
2022-08-05T03:52:48.460Z,54.25
2022-08-05T03:55:00.509Z,53.59
2022-08-05T03:55:50.744Z,53.51
2022-08-05T03:56:05.238Z,53.67
2022-08-05T03:56:30.595Z,53.35
2022-08-05T03:57:20.177Z,53.35
2022-08-05T03:58:20.167Z,53.58
2022-08-05T03:59:20.632Z,52.87
2022-08-05T04:00:20.191Z,52.72
2022-08-05T04:01:20.838Z,52.72
2022-08-05T04:02:37.589Z,52.68
2022-08-05T04:03:28.348Z,52.16
2022-08-05T04:04:21.311Z,51.97
2022-08-05T04:05:20.188Z,52.16
2022-08-05T04:06:20.505Z,52.02
2022-08-05T04:07:20.174Z,51.49
2022-08-05T04:08:35.926Z,51.44
2022-08-05T04:09:25.989Z,51.09
2022-08-05T04:10:20.192Z,50.76
2022-08-05T04:11:20.178Z,50.68
2022-08-05T04:12:24.518Z,50.53
2022-08-05T04:13:20.180Z,50.38
2022-08-05T04:14:30.265Z,50.24
2022-08-05T04:15:20.197Z,50.01
2022-08-05T04:16:24.903Z,49.15
2022-08-05T04:17:20.171Z,48.82
2022-08-05T04:18:22.452Z,48.63
2022-08-05T04:19:20.168Z,48.2
2022-08-05T04:20:20.179Z,45.62
2022-08-05T04:22:09.220Z,48.28
2022-08-05T04:22:20.443Z,48.65
2022-08-05T04:23:20.173Z,48.47
2022-08-05T04:24:22.653Z,48.41
2022-08-05T04:25:20.198Z,48.24
2022-08-05T04:26:20.175Z,47.95
2022-08-05T04:27:33.156Z,47.54
2022-08-05T04:28:20.178Z,47.43
2022-08-05T04:29:20.179Z,47.76
2022-08-05T04:30:20.199Z,47.4
2022-08-05T04:31:20.197Z,47.4
2022-08-05T04:32:31.189Z,47.27
2022-08-05T04:33:20.574Z,47.03
2022-08-05T04:34:33.117Z,47.18
2022-08-05T04:35:20.236Z,47.42
2022-08-05T04:36:49.903Z,47.51
2022-08-05T04:37:20.178Z,46.87
2022-08-05T04:38:20.178Z,46.45
2022-08-05T04:39:20.225Z,46.29
2022-08-05T04:40:20.190Z,46.42
2022-08-05T04:41:20.195Z,46.16
2022-08-05T04:42:20.181Z,46.23
2022-08-05T04:43:22.102Z,46.23
2022-08-05T04:44:21.273Z,45.79
2022-08-05T04:45:22.895Z,45.79
2022-08-05T04:46:28.269Z,46.32
2022-08-05T04:47:20.473Z,46.88
2022-08-05T04:48:27.601Z,46.39
2022-08-05T04:49:24.605Z,46.59
2022-08-05T04:50:34.426Z,47.16
2022-08-05T04:51:20.184Z,46.99
2022-08-05T04:52:20.178Z,45.6
2022-08-05T04:53:20.173Z,45.86
2022-08-05T04:54:20.172Z,46.01
2022-08-05T04:55:34.023Z,46.92
2022-08-05T04:56:32.748Z,47.37
2022-08-05T04:57:20.178Z,47.26
2022-08-05T04:58:21.732Z,47.16
2022-08-05T04:59:23.149Z,47.95
2022-08-05T05:00:23.639Z,48.08
2022-08-05T05:02:06.786Z,48.16
2022-08-05T05:02:41.211Z,48.16
2022-08-05T05:03:20.343Z,48.29
2022-08-05T05:04:20.179Z,48.58
2022-08-05T05:05:28.280Z,49.16
2022-08-05T05:06:38.766Z,48.27
2022-08-05T05:07:23.853Z,48.15
2022-08-05T05:08:26.586Z,49.28
2022-08-05T05:09:20.179Z,49.4
2022-08-05T05:10:20.188Z,48.94
2022-08-05T05:11:20.183Z,48.67
2022-08-05T05:12:20.192Z,47.14
2022-08-05T05:13:20.186Z,48.99
2022-08-05T05:14:27.909Z,49.44
2022-08-05T05:15:56.546Z,49.44
2022-08-05T05:16:20.204Z,47.61
2022-08-05T05:17:24.266Z,48.7
2022-08-05T05:18:28.309Z,47.43
2022-08-05T05:19:23.594Z,49.3
2022-08-05T05:20:20.491Z,49.3
2022-08-05T05:21:20.180Z,46.38
2022-08-05T05:22:22.920Z,46.22
2022-08-05T05:23:20.261Z,46.13
2022-08-05T05:24:20.173Z,46
2022-08-05T05:25:20.177Z,46.57
2022-08-05T05:26:28.744Z,46.75
2022-08-05T05:27:20.169Z,43.57
2022-08-05T05:28:20.174Z,47.56
2022-08-05T05:29:20.176Z,44.07
2022-08-05T05:30:30.737Z,46.2
2022-08-05T05:31:20.197Z,46.08
2022-08-05T05:32:20.175Z,46.6
2022-08-05T05:33:23.430Z,46.78
2022-08-05T05:34:26.589Z,47.42
2022-08-05T05:35:20.202Z,47.03
2022-08-05T05:36:20.177Z,46.64
2022-08-05T05:37:20.180Z,46.96
2022-08-05T05:38:22.497Z,46.21
2022-08-05T05:39:20.260Z,47.1
2022-08-05T05:40:20.194Z,46.59
2022-08-05T05:41:20.175Z,46.66
2022-08-05T05:42:20.825Z,47.27
2022-08-05T05:43:22.357Z,47.54
2022-08-05T05:44:36.647Z,47.39
2022-08-05T05:45:20.191Z,47.57
2022-08-05T05:46:20.196Z,45.03
2022-08-05T05:47:21.701Z,46.7
2022-08-05T05:48:20.174Z,46.33
2022-08-05T05:49:22.988Z,47.27
2022-08-05T05:50:20.193Z,47.27
2022-08-05T05:51:20.175Z,47.71
2022-08-05T05:52:28.646Z,47.71
2022-08-05T05:53:21.618Z,47.73
2022-08-05T05:54:20.173Z,48.38
2022-08-05T05:55:20.196Z,47.83
2022-08-05T05:56:26.200Z,48.22
2022-08-05T05:57:20.342Z,48.03
2022-08-05T05:58:20.181Z,48.15
2022-08-05T05:59:20.174Z,47.25
2022-08-05T06:00:20.193Z,47.35
2022-08-05T06:01:23.432Z,47.85
2022-08-05T06:02:32.621Z,48.6
2022-08-05T06:03:40.589Z,48.54
2022-08-05T06:04:20.242Z,48.2
2022-08-05T06:05:20.185Z,48.17
2022-08-05T06:06:20.173Z,48.52
2022-08-05T06:07:22.446Z,48.52
2022-08-05T06:08:32.264Z,48.33
2022-08-05T06:09:35.351Z,47.99
2022-08-05T06:10:20.182Z,48.14
2022-08-05T06:11:20.175Z,48.15
2022-08-05T06:12:20.190Z,48.88
2022-08-05T06:13:20.171Z,49.44
2022-08-05T06:14:20.173Z,48.63
2022-08-05T06:15:23.950Z,48.71
2022-08-05T06:16:28.473Z,47.99
2022-08-05T06:17:22.623Z,47.49
2022-08-05T06:18:20.175Z,47.88
2022-08-05T06:19:34.263Z,47.09
2022-08-05T06:20:21.693Z,47.32
2022-08-05T06:21:20.162Z,47.87
2022-08-05T06:22:20.183Z,47.77
2022-08-05T06:23:20.171Z,48.08
2022-08-05T06:24:25.865Z,48.67
2022-08-05T06:25:24.947Z,46.98
2022-08-05T06:26:21.231Z,46.2
2022-08-05T06:28:11.537Z,46.76
2022-08-05T06:28:21.602Z,47.62
2022-08-05T06:29:26.454Z,47.58
2022-08-05T06:30:21.405Z,47.39
2022-08-05T06:31:22.124Z,47.54
2022-08-05T06:32:26.302Z,47.42
2022-08-05T06:34:02.972Z,46.98
2022-08-05T06:34:20.345Z,46.75
2022-08-05T06:36:04.134Z,47.62
2022-08-05T06:36:20.173Z,47.79
2022-08-05T06:37:55.773Z,48.16
2022-08-05T06:38:36.025Z,48.73
2022-08-05T06:39:20.190Z,49.13
2022-08-05T06:40:21.072Z,49.13
2022-08-05T06:41:20.172Z,47.37
2022-08-05T06:42:20.175Z,47.69
2022-08-05T06:43:57.782Z,47.77
2022-08-05T06:44:22.073Z,47.93
2022-08-05T06:45:20.854Z,46.96
2022-08-05T06:46:20.185Z,47.52
2022-08-05T06:48:12.468Z,48.12
2022-08-05T06:48:53.142Z,47.34
2022-08-05T06:49:21.350Z,47.34
2022-08-05T06:50:20.191Z,48.06
2022-08-05T06:51:25.295Z,48.25
2022-08-05T06:52:37.290Z,48.07
2022-08-05T06:53:27.834Z,46.2
2022-08-05T06:54:20.165Z,48.38
2022-08-05T06:55:20.191Z,48.38
2022-08-05T06:56:26.349Z,46
2022-08-05T06:57:57.403Z,45.96
2022-08-05T06:58:29.606Z,46.05
2022-08-05T06:59:20.168Z,46.05
2022-08-05T07:00:22.170Z,47.14
2022-08-05T07:01:20.910Z,47.09
2022-08-05T07:02:22.899Z,46.43
2022-08-05T07:03:20.152Z,47
2022-08-05T07:04:20.159Z,46.14
2022-08-05T07:05:24.625Z,46.1
2022-08-05T07:06:20.643Z,45.77
2022-08-05T07:07:24.105Z,46.36
2022-08-05T07:08:20.171Z,46.71
2022-08-05T07:09:20.170Z,47.27
2022-08-05T07:10:20.190Z,46.79
2022-08-05T07:11:22.282Z,45.7
2022-08-05T07:12:20.182Z,45.27
2022-08-05T07:13:46.377Z,45.27
2022-08-05T07:14:30.011Z,46
2022-08-05T07:15:34.728Z,46.34
2022-08-05T07:17:57.311Z,46.78
2022-08-05T07:17:59.793Z,46.75
2022-08-05T07:18:27.241Z,46.83
2022-08-05T07:19:44.297Z,46.83
2022-08-05T07:20:36.300Z,46.73
2022-08-05T07:21:25.879Z,46.2
2022-08-05T07:22:20.189Z,45.98
2022-08-05T07:23:26.508Z,46.17
2022-08-05T07:24:20.187Z,46.07
2022-08-05T07:25:53.976Z,45.9
2022-08-05T07:26:22.851Z,46.05
2022-08-05T07:27:20.172Z,46.21
2022-08-05T07:28:20.177Z,45.74
2022-08-05T07:29:20.191Z,45.71
2022-08-05T07:30:27.816Z,46.23
2022-08-05T07:31:20.188Z,46.12
2022-08-05T07:32:24.277Z,46.15
2022-08-05T07:33:20.178Z,46.02
2022-08-05T07:34:21.269Z,46.2
2022-08-05T07:36:01.877Z,46.21
2022-08-05T07:36:21.687Z,46.37
2022-08-05T07:37:20.195Z,46.25
2022-08-05T07:38:32.863Z,46.27
2022-08-05T07:39:50.404Z,46.84
2022-08-05T07:40:32.125Z,43.67
2022-08-05T07:42:14.288Z,46.54
2022-08-05T07:42:31.704Z,46.56
2022-08-05T07:43:21.160Z,43.46
2022-08-05T07:44:20.235Z,46.23
2022-08-05T07:45:21.803Z,46.48
2022-08-05T07:46:25.369Z,46.34
2022-08-05T07:47:20.176Z,46.24
2022-08-05T07:49:00.947Z,46.3
2022-08-05T07:49:20.172Z,46.59
2022-08-05T07:50:23.674Z,46.22
2022-08-05T07:51:23.824Z,46.43
2022-08-05T07:52:20.169Z,46.25
2022-08-05T07:53:20.181Z,46.65
2022-08-05T07:54:20.208Z,46.53
2022-08-05T07:56:04.809Z,46.75
2022-08-05T07:57:02.932Z,46.46
2022-08-05T07:57:52.342Z,46.15
2022-08-05T07:58:58.685Z,46.05
2022-08-05T07:59:38.908Z,46.06
2022-08-05T08:00:25.756Z,46.35
2022-08-05T08:01:25.833Z,46.48
2022-08-05T08:02:26.819Z,46.41
2022-08-05T08:03:25.671Z,46.62
2022-08-05T08:04:37.843Z,46.59
2022-08-05T08:05:26.318Z,46.37
2022-08-05T08:06:28.262Z,46.58
2022-08-05T08:07:28.445Z,46.58
2022-08-05T08:08:25.981Z,46.13
2022-08-05T08:09:25.647Z,46.38
2022-08-05T08:10:25.661Z,46.33
2022-08-05T08:11:27.569Z,46.21
2022-08-05T08:12:33.541Z,46.1
2022-08-05T08:13:29.087Z,45.55
2022-08-05T08:14:25.646Z,45.14
2022-08-05T08:15:28.082Z,45.01
2022-08-05T08:16:50.002Z,45.01
2022-08-05T08:17:27.921Z,45.56
2022-08-05T08:18:25.609Z,42.1
2022-08-05T08:20:21.888Z,44.92
2022-08-05T08:21:00.126Z,44.9
2022-08-05T08:21:25.604Z,44.76
2022-08-05T08:22:27.041Z,44.94
2022-08-05T08:24:01.968Z,44.75
2022-08-05T08:24:34.723Z,44.67
2022-08-05T08:25:27.140Z,44.35
2022-08-05T08:26:29.745Z,44.2
2022-08-05T08:27:40.186Z,44.2
2022-08-05T08:28:36.410Z,44.2
2022-08-05T08:30:03.398Z,43.91
2022-08-05T08:30:33.935Z,43.93
2022-08-05T08:31:26.973Z,40.01
2022-08-05T08:32:28.172Z,43.7
2022-08-05T08:33:25.636Z,42.64
2022-08-05T08:34:30.671Z,43
2022-08-05T08:35:26.730Z,43.18
2022-08-05T08:36:38.364Z,43.25
2022-08-05T08:37:28.018Z,43.31
2022-08-05T08:38:35.706Z,43.3
2022-08-05T08:39:25.691Z,42.85
2022-08-05T08:40:25.664Z,42.74
2022-08-05T08:41:26.222Z,41.81
2022-08-05T08:42:33.860Z,42.04
2022-08-05T08:45:17.094Z,42.05
2022-08-05T08:45:21.058Z,42.5
2022-08-05T08:45:27.257Z,42.26
2022-08-05T08:46:26.015Z,42.37
2022-08-05T08:48:06.054Z,42.52
2022-08-05T08:49:03.044Z,42.01
2022-08-05T08:50:22.384Z,42.03
2022-08-05T08:50:46.424Z,41.42
2022-08-05T08:52:03.623Z,40.58
2022-08-05T08:52:25.801Z,40.56
2022-08-05T08:53:25.641Z,40.54
2022-08-05T08:54:27.377Z,40.5
2022-08-05T08:56:02.421Z,40.6
2022-08-05T08:56:27.065Z,40.63
2022-08-05T08:57:25.658Z,40.63
2022-08-05T08:58:37.033Z,40.75
2022-08-05T08:59:27.908Z,40.9
2022-08-05T09:00:25.704Z,40.9
2022-08-05T09:01:25.778Z,41.01
2022-08-05T09:02:26.925Z,41.01
2022-08-05T09:03:25.643Z,40.64
2022-08-05T09:04:30.484Z,41.14
2022-08-05T09:05:39.038Z,40.59
2022-08-05T09:06:28.025Z,39.97
2022-08-05T09:07:28.974Z,39.97
2022-08-05T09:08:27.329Z,40.56
2022-08-05T09:09:26.021Z,40.87
2022-08-05T09:10:27.724Z,40.87
2022-08-05T09:11:51.276Z,40.99
2022-08-05T09:12:27.424Z,39.17
2022-08-05T09:13:25.647Z,40.35
2022-08-05T09:14:57.338Z,40.19
2022-08-05T09:15:25.653Z,39.91
2022-08-05T09:16:26.894Z,39.83
2022-08-05T09:17:40.441Z,40.35
2022-08-05T09:18:25.647Z,41.06
2022-08-05T09:19:27.828Z,40.57
2022-08-05T09:20:37.290Z,40.89
2022-08-05T09:22:22.079Z,40.89
2022-08-05T09:22:31.954Z,40.77
2022-08-05T09:23:28.758Z,41.05
2022-08-05T09:24:25.639Z,41.56
2022-08-05T09:26:02.612Z,42.28
2022-08-05T09:26:25.657Z,42.04
2022-08-05T09:28:05.811Z,42.04
2022-08-05T09:28:31.842Z,42.04
2022-08-05T09:29:30.976Z,42.42
2022-08-05T09:30:25.661Z,42.21
2022-08-05T09:32:39.942Z,42.76
2022-08-05T09:32:40.811Z,42.3
2022-08-05T09:33:35.162Z,42.35
2022-08-05T09:34:26.166Z,42.57
2022-08-05T09:35:26.715Z,43.02
2022-08-05T09:36:27.566Z,43.02
2022-08-05T09:38:12.055Z,42.49
2022-08-05T09:38:27.516Z,42.5
2022-08-05T09:39:27.547Z,42.79
2022-08-05T09:40:25.747Z,42.79
2022-08-05T09:41:25.644Z,42.52
2022-08-05T09:42:28.136Z,42.48
2022-08-05T09:43:25.635Z,42.5
2022-08-05T09:44:25.637Z,42.5
2022-08-05T09:46:06.907Z,42.68
2022-08-05T09:46:27.427Z,42.88
2022-08-05T09:47:25.647Z,43.01
2022-08-05T09:48:26.986Z,43.07
2022-08-05T09:49:40.483Z,43.63
2022-08-05T09:50:38.546Z,43.78
2022-08-05T09:51:25.648Z,43.87
2022-08-05T09:52:26.053Z,43.91
2022-08-05T09:53:26.149Z,43.67
2022-08-05T09:54:28.985Z,42.17
2022-08-05T09:55:56.261Z,42.86
2022-08-05T09:56:25.642Z,42.74
2022-08-05T09:57:25.634Z,43.17
2022-08-05T09:58:25.721Z,43
2022-08-05T09:59:27.588Z,43.44
2022-08-05T10:00:25.662Z,42.89
2022-08-05T10:01:32.358Z,42.61
2022-08-05T10:02:25.969Z,41.62
2022-08-05T10:03:25.657Z,41.61
2022-08-05T10:04:28.548Z,42.35
2022-08-05T10:05:26.852Z,42.5
2022-08-05T10:06:25.658Z,42.13
2022-08-05T10:07:50.357Z,41.99
2022-08-05T10:08:36.217Z,42.13
2022-08-05T10:09:28.304Z,42.24
2022-08-05T10:10:28.039Z,41.85
2022-08-05T10:11:31.352Z,42.3
2022-08-05T10:16:25.705Z,42.85
2022-08-05T10:17:37.908Z,42.24
2022-08-05T10:18:25.630Z,42.89
2022-08-05T10:20:02.935Z,43.05
2022-08-05T10:20:25.636Z,38.89
2022-08-05T10:21:25.647Z,43.09
2022-08-05T10:22:30.365Z,42.73
2022-08-05T10:23:56.195Z,42.17
2022-08-05T10:24:26.985Z,42.4
2022-08-05T10:25:25.642Z,42.34
2022-08-05T10:26:32.531Z,42.59
2022-08-05T10:27:26.247Z,42.47
2022-08-05T10:28:29.135Z,38.6
2022-08-05T10:30:06.893Z,42.83
2022-08-05T10:31:20.849Z,43.13
2022-08-05T10:32:52.276Z,42.72
2022-08-05T10:32:52.808Z,39.69
2022-08-05T10:33:25.660Z,41.88
2022-08-05T10:34:30.046Z,42.07
2022-08-05T10:35:33.909Z,41.9
2022-08-05T10:36:26.094Z,42.44
2022-08-05T10:37:26.669Z,42.66
2022-08-05T10:38:25.639Z,42.84
2022-08-05T10:40:03.889Z,43.04
2022-08-05T10:40:27.907Z,42.93
2022-08-05T10:41:25.651Z,39.42
2022-08-05T10:42:34.004Z,43.12
2022-08-05T10:43:35.583Z,42.42
2022-08-05T10:44:25.639Z,42.8
2022-08-05T10:45:39.689Z,43.18
2022-08-05T10:46:25.653Z,42.42
2022-08-05T10:47:26.289Z,42.28
2022-08-05T10:48:31.127Z,42.58
2022-08-05T10:49:26.859Z,41.84
2022-08-05T10:50:36.132Z,41.96
2022-08-05T10:51:28.513Z,42.17
2022-08-05T10:52:25.806Z,42.71
2022-08-05T10:53:25.647Z,42.46
2022-08-05T10:54:29.831Z,41.38
2022-08-05T10:55:25.641Z,41.4
2022-08-05T10:56:26.153Z,41.15
2022-08-05T10:57:25.637Z,41.71
2022-08-05T10:58:47.753Z,42.32
2022-08-05T11:00:03.307Z,42.6
2022-08-05T11:00:25.634Z,42.6
2022-08-05T11:01:28.283Z,42.5
2022-08-05T11:02:34.907Z,42.04
2022-08-05T11:03:26.998Z,41.28
2022-08-05T11:04:26.325Z,41.72
2022-08-05T11:05:29.112Z,42.28
2022-08-05T11:06:31.130Z,42.51
2022-08-05T11:07:33.065Z,41.67
2022-08-05T11:08:36.999Z,42.15
2022-08-05T11:09:39.206Z,41.84
2022-08-05T11:10:27.487Z,42.29
2022-08-05T11:11:41.951Z,42.16
2022-08-05T11:12:25.958Z,41.37
2022-08-05T11:13:25.639Z,41.58
2022-08-05T11:14:42.772Z,41.76
2022-08-05T11:15:44.044Z,41.9
2022-08-05T11:16:47.920Z,42.14
2022-08-05T11:17:59.953Z,41.78
2022-08-05T11:18:25.659Z,41.18
2022-08-05T11:20:10.225Z,40.81
2022-08-05T11:20:25.656Z,41.16
2022-08-05T11:21:25.660Z,40.35
2022-08-05T11:22:25.652Z,39.46
2022-08-05T11:23:25.645Z,40.13
2022-08-05T11:24:30.199Z,39.51
2022-08-05T11:26:05.897Z,39.86
2022-08-05T11:26:28.151Z,39.67
2022-08-05T11:27:25.825Z,39.01
2022-08-05T11:28:25.658Z,39.63
2022-08-05T11:29:25.685Z,39.31
2022-08-05T11:30:25.904Z,39.39
2022-08-05T11:31:57.453Z,39.05
2022-08-05T11:32:25.633Z,39.88
2022-08-05T11:33:25.637Z,40.13
2022-08-05T11:34:26.274Z,39.21
2022-08-05T11:35:26.232Z,38.97
2022-08-05T11:36:34.060Z,39.71
2022-08-05T11:38:29.693Z,39.5
2022-08-05T11:38:30.971Z,39.23
2022-08-05T11:39:25.656Z,40.2
2022-08-05T11:40:25.635Z,40.2
2022-08-05T11:41:54.366Z,40.23
2022-08-05T11:42:28.151Z,41.02
2022-08-05T11:44:01.004Z,39.77
2022-08-05T11:44:53.410Z,40.12
2022-08-05T11:46:14.699Z,39.47
2022-08-05T11:46:32.359Z,39.6
2022-08-05T11:47:49.446Z,39.17
2022-08-05T11:48:25.639Z,38.79
2022-08-05T11:49:25.634Z,39.21
2022-08-05T11:50:25.634Z,39.31
2022-08-05T11:51:44.002Z,39.42
2022-08-05T11:52:29.281Z,40.31
2022-08-05T11:53:25.634Z,39.89
2022-08-05T11:54:33.674Z,39.89
2022-08-05T11:55:32.313Z,39.65
2022-08-05T12:00:25.647Z,38.09
2022-08-05T12:01:25.657Z,38.09
2022-08-05T12:02:31.341Z,38.37
2022-08-05T12:03:31.320Z,38.37
2022-08-05T12:04:25.637Z,39.26
2022-08-05T12:05:36.417Z,39.22
2022-08-05T12:06:25.644Z,39.41
2022-08-05T12:08:02.619Z,40.31
2022-08-05T12:08:25.633Z,40.12
2022-08-05T12:09:52.830Z,40.04
2022-08-05T12:10:43.129Z,39.81
2022-08-05T12:11:28.280Z,40.08
2022-08-05T12:12:25.759Z,39.4
2022-08-05T12:13:47.749Z,39.14
2022-08-05T12:14:25.651Z,40.32
2022-08-05T12:15:37.895Z,40.51
2022-08-05T12:16:27.135Z,40.41
2022-08-05T12:18:02.721Z,40.23
2022-08-05T12:18:29.570Z,41.08
2022-08-05T12:20:27.120Z,40.94
2022-08-05T12:20:33.327Z,41.74
2022-08-05T12:21:26.994Z,41.27
2022-08-05T12:22:25.657Z,41.04
2022-08-05T12:23:25.637Z,41.41
2022-08-05T12:24:25.641Z,41.01
2022-08-05T12:25:28.427Z,41
2022-08-05T12:26:25.637Z,41.38
2022-08-05T12:27:25.737Z,41.43
2022-08-05T12:28:25.646Z,41.09
2022-08-05T12:29:25.637Z,41.24
2022-08-05T12:30:32.235Z,41.53
2022-08-05T12:31:33.718Z,40.93
2022-08-05T12:32:25.623Z,41.18
2022-08-05T12:33:27.595Z,40.93
2022-08-05T12:34:25.923Z,41.18
2022-08-05T12:35:39.748Z,41.25
2022-08-05T12:36:25.746Z,40.9
2022-08-05T12:37:29.983Z,40.33
2022-08-05T12:38:30.217Z,40.68
2022-08-05T12:39:34.322Z,40.14
2022-08-05T12:40:26.866Z,40.24
2022-08-05T12:41:25.644Z,40.25
2022-08-05T12:42:25.637Z,40.16
2022-08-05T12:43:25.635Z,40.29
2022-08-05T12:44:33.275Z,40.45
2022-08-05T12:45:42.477Z,40.38
2022-08-05T12:46:29.799Z,40.58
2022-08-05T12:47:25.897Z,40.4
2022-08-05T12:48:27.494Z,40.4
2022-08-05T12:49:25.727Z,40.42
2022-08-05T12:50:25.632Z,40.87
2022-08-05T12:52:12.832Z,40.51
2022-08-05T12:52:29.562Z,41.51
2022-08-05T12:53:25.636Z,41.72
2022-08-05T12:54:26.505Z,41.97
2022-08-05T12:55:26.352Z,41.22
2022-08-05T12:56:34.918Z,41.42
2022-08-05T12:57:25.809Z,41.3
2022-08-05T12:58:48.882Z,41.6
2022-08-05T12:59:27.603Z,41.87
2022-08-05T13:02:00.417Z,41.8
2022-08-05T13:02:01.082Z,41.69
2022-08-05T13:02:30.310Z,41.8
2022-08-05T13:03:25.653Z,42.45
2022-08-05T13:04:25.633Z,42.41
2022-08-05T13:05:25.632Z,42.37
2022-08-05T13:06:25.635Z,42.62
2022-08-05T13:07:55.008Z,42.81